createdAt,value
2019-05-23T00:00:19.727Z,4.10
2019-05-23T00:02:55.458Z,4.43
2019-05-23T00:05:32.127Z,4.57
2019-05-23T00:08:03.197Z,4.13
2019-05-23T00:10:38.706Z,4.43
2019-05-23T00:13:26.293Z,3.73
2019-05-23T00:15:55.932Z,4.17
2019-05-23T00:18:27.328Z,4.00
2019-05-23T00:20:57.771Z,4.43
2019-05-23T00:23:26.639Z,4.27
2019-05-23T00:25:55.807Z,4.50
2019-05-23T00:28:26.103Z,4.00
2019-05-23T00:31:13.727Z,4.20
2019-05-23T00:33:44.676Z,4.50
2019-05-23T00:36:14.089Z,4.23
2019-05-23T00:38:42.939Z,4.37
2019-05-23T00:41:12.615Z,4.10
2019-05-23T00:43:42.549Z,3.73
2019-05-23T00:46:12.066Z,4.50
2019-05-23T00:48:41.133Z,4.37
2019-05-23T00:51:12.164Z,4.67
2019-05-23T00:53:42.506Z,4.83
2019-05-23T00:56:11.566Z,4.53
2019-05-23T00:58:41.294Z,4.17
2019-05-23T01:01:11.537Z,3.97
2019-05-23T01:03:41.161Z,4.20
2019-05-23T01:06:11.514Z,5.17
2019-05-23T01:08:40.585Z,5.57
2019-05-23T01:11:11.466Z,5.03
2019-05-23T01:13:40.369Z,5.03
2019-05-23T01:16:09.629Z,5.20
2019-05-23T01:18:39.387Z,5.40
2019-05-23T01:21:22.791Z,6.30
2019-05-23T01:23:59.409Z,5.80
2019-05-23T01:26:29.573Z,6.77
2019-05-23T01:28:59.470Z,6.27
2019-05-23T01:31:34.224Z,7.53
2019-05-23T01:34:04.388Z,7.37
2019-05-23T01:36:34.865Z,7.27
2019-05-23T01:39:06.539Z,7.73
2019-05-23T01:41:36.395Z,7.00
2019-05-23T01:44:06.352Z,7.40
2019-05-23T01:46:36.426Z,6.97
2019-05-23T01:49:07.256Z,7.93
2019-05-23T01:51:37.398Z,8.03
2019-05-23T01:54:07.345Z,7.73
2019-05-23T01:56:37.235Z,7.77
2019-05-23T01:59:06.274Z,7.77
2019-05-23T02:01:37.221Z,7.53
2019-05-23T02:04:06.953Z,7.93
2019-05-23T02:06:36.286Z,9.17
2019-05-23T02:09:09.411Z,8.50
2019-05-23T02:11:38.961Z,8.70
2019-05-23T02:14:07.827Z,8.97
2019-05-23T02:16:38.080Z,8.93
2019-05-23T02:19:07.656Z,9.50
2019-05-23T02:21:36.807Z,8.73
2019-05-23T02:24:07.098Z,8.60
2019-05-23T02:26:37.124Z,9.17
2019-05-23T02:29:06.834Z,9.43
2019-05-23T02:31:36.125Z,9.17
2019-05-23T02:34:07.116Z,9.67
2019-05-23T02:36:36.161Z,8.73
2019-05-23T02:39:27.241Z,8.50
2019-05-23T02:42:01.923Z,8.37
2019-05-23T02:44:31.993Z,8.43
2019-05-23T02:47:18.766Z,8.60
2019-05-23T02:49:51.322Z,9.30
2019-05-23T02:52:34.739Z,9.27
2019-05-23T02:55:07.408Z,8.23
2019-05-23T02:57:36.784Z,7.93
2019-05-23T03:00:53.492Z,8.80
2019-05-23T03:03:14.334Z,7.90
2019-05-23T03:05:44.935Z,7.17
2019-05-23T03:08:17.410Z,7.93
2019-05-23T03:10:54.756Z,7.13
2019-05-23T03:13:26.610Z,8.20
2019-05-23T03:15:57.417Z,7.07
2019-05-23T03:18:33.834Z,8.70
2019-05-23T03:21:01.943Z,9.27
2019-05-23T03:23:30.843Z,9.23
2019-05-23T03:26:37.581Z,8.40
2019-05-23T03:29:09.010Z,8.70
2019-05-23T03:31:45.158Z,8.73
2019-05-23T03:34:15.878Z,8.43
2019-05-23T03:36:45.080Z,8.87
2019-05-23T03:39:15.025Z,9.33
2019-05-23T03:41:44.052Z,9.67
2019-05-23T03:44:14.829Z,8.60
2019-05-23T03:46:46.525Z,9.57
2019-05-23T03:49:16.557Z,9.87
2019-05-23T03:51:45.519Z,9.97
2019-05-23T03:54:15.427Z,8.23
2019-05-23T03:57:04.293Z,9.70
2019-05-23T03:59:33.414Z,9.27
2019-05-23T04:02:04.429Z,9.10
2019-05-23T04:04:33.453Z,10.00
2019-05-23T04:07:04.676Z,9.93
2019-05-23T04:09:33.860Z,11.13
2019-05-23T04:12:04.335Z,11.50
2019-05-23T04:14:33.689Z,12.40
2019-05-23T04:17:04.590Z,12.03
2019-05-23T04:19:33.519Z,11.50
2019-05-23T04:22:03.187Z,12.30
2019-05-23T04:24:32.394Z,11.77
2019-05-23T04:27:01.595Z,12.67
2019-05-23T04:29:30.637Z,12.03
2019-05-23T04:32:08.105Z,11.80
2019-05-23T04:34:31.582Z,12.80
2019-05-23T04:37:02.578Z,13.07
2019-05-23T04:39:32.984Z,12.03
2019-05-23T04:42:02.565Z,12.33
2019-05-23T04:44:31.403Z,12.00
2019-05-23T04:47:01.133Z,13.00
2019-05-23T04:49:30.259Z,12.53
2019-05-23T04:51:59.512Z,12.93
2019-05-23T04:54:28.949Z,12.37
2019-05-23T04:56:58.875Z,13.83
2019-05-23T04:59:28.779Z,13.13
2019-05-23T05:01:57.692Z,12.73
2019-05-23T05:04:26.939Z,12.77
2019-05-23T05:06:56.432Z,12.80
2019-05-23T05:09:27.905Z,13.03
2019-05-23T05:11:58.418Z,12.93
2019-05-23T05:14:28.215Z,12.93
2019-05-23T05:16:57.795Z,13.50
2019-05-23T05:19:27.184Z,13.50
2019-05-23T05:21:56.868Z,12.43
2019-05-23T05:24:25.660Z,11.97
2019-05-23T05:26:54.791Z,13.47
2019-05-23T05:29:23.610Z,13.30
2019-05-23T05:31:53.416Z,13.60
2019-05-23T05:34:22.274Z,13.17
2019-05-23T05:36:51.616Z,13.93
2019-05-23T05:39:22.670Z,12.80
2019-05-23T05:41:52.665Z,13.37
2019-05-23T05:44:21.832Z,12.20
2019-05-23T05:46:51.395Z,13.47
2019-05-23T05:49:21.132Z,11.93
2019-05-23T05:51:50.127Z,12.27
2019-05-23T05:54:19.610Z,12.07
2019-05-23T05:56:48.722Z,10.87
2019-05-23T05:59:17.951Z,11.23
2019-05-23T06:01:47.299Z,10.97
2019-05-23T06:04:16.422Z,10.00
2019-05-23T06:06:59.240Z,10.13
2019-05-23T06:09:30.077Z,9.70
2019-05-23T06:11:59.177Z,10.23
2019-05-23T06:14:28.915Z,9.63
2019-05-23T06:16:58.508Z,8.67
2019-05-23T06:19:27.789Z,8.17
2019-05-23T06:21:56.998Z,8.30
2019-05-23T06:24:42.971Z,7.00
2019-05-23T06:26:57.724Z,7.27
2019-05-23T06:29:27.123Z,5.83
2019-05-23T06:31:56.308Z,6.03
2019-05-23T06:34:26.071Z,5.90
2019-05-23T06:36:55.357Z,4.57
2019-05-23T06:39:24.206Z,5.73
2019-05-23T06:41:53.371Z,4.90
2019-05-23T06:44:22.347Z,4.67
2019-05-23T06:46:51.276Z,4.33
2019-05-23T06:49:20.389Z,5.30
2019-05-23T06:51:49.217Z,4.30
2019-05-23T06:54:18.350Z,4.77
2019-05-23T06:56:47.262Z,4.00
2019-05-23T06:59:16.399Z,3.63
2019-05-23T07:01:45.836Z,3.67
2019-05-23T07:04:14.971Z,4.83
2019-05-23T07:06:45.370Z,4.13
2019-05-23T07:09:17.289Z,3.57
2019-05-23T07:11:46.212Z,3.70
2019-05-23T07:14:15.677Z,3.57
2019-05-23T07:16:44.772Z,3.40
2019-05-23T07:19:14.691Z,2.97
2019-05-23T07:21:43.923Z,3.13
2019-05-23T07:24:14.758Z,3.37
2019-05-23T07:26:45.122Z,2.90
2019-05-23T07:29:14.820Z,3.40
2019-05-23T07:31:44.458Z,3.30
2019-05-23T07:34:14.625Z,3.27
2019-05-23T07:36:43.656Z,3.00
2019-05-23T07:39:12.748Z,2.73
2019-05-23T07:41:42.504Z,2.60
2019-05-23T07:44:11.978Z,2.10
2019-05-23T07:46:41.315Z,2.20
2019-05-23T07:49:10.919Z,3.13
2019-05-23T07:51:40.034Z,2.20
2019-05-23T07:54:30.547Z,2.17
2019-05-23T07:57:00.027Z,2.20
2019-05-23T07:59:29.050Z,2.10
2019-05-23T08:02:12.932Z,2.10
2019-05-23T08:04:42.785Z,2.70
2019-05-23T08:07:13.520Z,1.80
2019-05-23T08:09:42.953Z,2.00
2019-05-23T08:12:13.161Z,1.60
2019-05-23T08:14:42.246Z,1.70
2019-05-23T08:17:11.757Z,1.80
2019-05-23T08:19:49.790Z,2.00
2019-05-23T08:22:11.596Z,1.90
2019-05-23T08:24:40.752Z,2.27
2019-05-23T08:27:10.537Z,2.00
2019-05-23T08:29:40.184Z,2.20
2019-05-23T08:32:09.759Z,2.40
2019-05-23T08:34:42.096Z,2.33
2019-05-23T08:37:11.500Z,2.57
2019-05-23T08:39:41.790Z,2.53
2019-05-23T08:42:12.287Z,2.37
2019-05-23T08:44:41.746Z,2.17
2019-05-23T08:47:10.919Z,2.23
2019-05-23T08:49:40.390Z,2.30
2019-05-23T08:52:09.175Z,2.60
2019-05-23T08:54:38.117Z,2.00
2019-05-23T08:57:08.379Z,2.20
2019-05-23T08:59:40.751Z,2.40
2019-05-23T09:02:12.151Z,2.30
2019-05-23T09:05:01.391Z,2.20
2019-05-23T09:07:12.217Z,2.27
2019-05-23T09:09:41.578Z,2.43
2019-05-23T09:12:11.400Z,2.17
2019-05-23T09:14:40.898Z,1.90
2019-05-23T09:17:10.871Z,1.97
2019-05-23T09:19:39.713Z,2.43
2019-05-23T09:22:09.035Z,1.87
2019-05-23T09:24:38.599Z,2.20
2019-05-23T09:27:07.472Z,2.20
2019-05-23T09:29:36.961Z,2.13
2019-05-23T09:32:06.607Z,2.10
2019-05-23T09:34:36.020Z,2.30
2019-05-23T09:37:06.886Z,2.50
2019-05-23T09:39:37.639Z,2.53
2019-05-23T09:42:06.434Z,2.07
2019-05-23T09:44:36.075Z,2.60
2019-05-23T09:47:05.009Z,2.00
2019-05-23T09:49:33.939Z,2.07
2019-05-23T09:52:04.281Z,2.07
2019-05-23T09:54:33.802Z,1.90
2019-05-23T09:57:04.248Z,2.00
2019-05-23T09:59:34.020Z,1.97
2019-05-23T10:02:03.022Z,2.00
2019-05-23T10:04:32.232Z,2.20
2019-05-23T10:07:01.617Z,2.13
2019-05-23T10:09:31.221Z,2.47
2019-05-23T10:12:00.427Z,1.90
2019-05-23T10:14:32.818Z,2.17
2019-05-23T10:17:02.447Z,2.07
2019-05-23T10:19:32.105Z,2.53
2019-05-23T10:22:00.859Z,1.90
2019-05-23T10:24:30.265Z,2.30
2019-05-23T10:26:59.725Z,2.30
2019-05-23T10:29:28.897Z,2.10
2019-05-23T10:31:58.114Z,2.30
2019-05-23T10:34:27.490Z,2.00
2019-05-23T10:36:56.603Z,2.20
2019-05-23T10:39:26.699Z,2.30
2019-05-23T10:41:55.880Z,2.00
2019-05-23T10:44:24.722Z,2.17
2019-05-23T10:46:53.642Z,2.10
2019-05-23T10:49:22.982Z,2.27
2019-05-23T10:51:52.089Z,2.00
2019-05-23T10:54:21.754Z,1.80
2019-05-23T10:56:50.588Z,2.00
2019-05-23T10:59:19.982Z,2.13
2019-05-23T11:01:49.390Z,1.90
2019-05-23T11:04:18.885Z,2.03
2019-05-23T11:06:48.416Z,2.10
2019-05-23T11:09:17.292Z,2.30
2019-05-23T11:11:46.590Z,2.10
2019-05-23T11:14:16.074Z,2.03
2019-05-23T11:16:45.443Z,1.93
2019-05-23T11:19:14.941Z,1.90
2019-05-23T11:21:44.057Z,2.10
2019-05-23T11:24:13.549Z,2.13
2019-05-23T11:26:43.642Z,2.23
2019-05-23T11:29:12.848Z,1.90
2019-05-23T11:31:42.396Z,1.90
2019-05-23T11:34:11.344Z,2.37
2019-05-23T11:36:40.905Z,2.10
2019-05-23T11:39:10.871Z,2.27
2019-05-23T11:41:39.689Z,2.00
2019-05-23T11:44:09.139Z,2.80
2019-05-23T11:46:39.426Z,2.37
2019-05-23T11:49:08.417Z,2.90
2019-05-23T11:51:38.109Z,2.10
2019-05-23T11:54:09.273Z,2.37
2019-05-23T11:56:38.572Z,2.70
2019-05-23T11:59:07.554Z,2.77
2019-05-23T12:01:47.896Z,2.50
2019-05-23T12:04:19.246Z,2.20
2019-05-23T12:07:11.885Z,2.50
2019-05-23T12:09:41.203Z,2.30
2019-05-23T12:12:10.501Z,2.73
2019-05-23T12:14:41.005Z,3.10
2019-05-23T12:17:10.947Z,2.37
2019-05-23T12:19:39.894Z,2.77
2019-05-23T12:22:09.472Z,2.80
2019-05-23T12:24:38.982Z,2.80
2019-05-23T12:27:08.710Z,3.00
2019-05-23T12:29:38.205Z,2.10
2019-05-23T12:32:08.748Z,3.00
2019-05-23T12:34:37.913Z,2.20
2019-05-23T12:37:18.484Z,2.47
2019-05-23T12:39:38.117Z,2.50
2019-05-23T12:42:07.097Z,2.40
2019-05-23T12:44:36.213Z,2.50
2019-05-23T12:47:07.013Z,2.30
2019-05-23T12:49:43.388Z,2.40
2019-05-23T12:52:13.398Z,2.40
2019-05-23T12:54:42.806Z,2.50
2019-05-23T12:57:13.110Z,2.90
2019-05-23T12:59:42.426Z,3.07
2019-05-23T13:02:14.903Z,2.63
2019-05-23T13:04:44.256Z,2.80
2019-05-23T13:07:14.372Z,2.60
2019-05-23T13:09:43.761Z,2.73
2019-05-23T13:12:15.806Z,2.47
2019-05-23T13:14:43.725Z,2.67
2019-05-23T13:17:13.019Z,2.20
2019-05-23T13:19:42.071Z,2.10
2019-05-23T13:22:11.473Z,2.57
2019-05-23T13:24:51.864Z,2.53
2019-05-23T13:27:12.424Z,2.63
2019-05-23T13:29:41.883Z,2.77
2019-05-23T13:32:11.074Z,2.90
2019-05-23T13:34:40.363Z,2.20
2019-05-23T13:37:11.111Z,2.90
2019-05-23T13:39:40.461Z,3.03
2019-05-23T13:42:09.514Z,2.37
2019-05-23T13:44:38.601Z,2.30
2019-05-23T13:47:07.887Z,2.40
2019-05-23T13:49:37.307Z,2.40
2019-05-23T13:52:06.132Z,2.33
2019-05-23T13:54:36.710Z,2.33
2019-05-23T13:57:06.300Z,2.40
2019-05-23T13:59:35.470Z,2.13
2019-05-23T14:02:06.090Z,2.40
2019-05-23T14:04:35.681Z,2.97
2019-05-23T14:07:06.527Z,2.30
2019-05-23T14:09:35.610Z,1.80
2019-05-23T14:12:20.772Z,2.43
2019-05-23T14:14:36.805Z,2.43
2019-05-23T14:17:29.339Z,2.00
2019-05-23T14:19:59.166Z,1.87
2019-05-23T14:22:28.834Z,2.50
2019-05-23T14:24:58.052Z,2.30
2019-05-23T14:27:39.366Z,2.40
2019-05-23T14:30:46.776Z,2.20
2019-05-23T14:33:31.850Z,2.33
2019-05-23T14:36:01.819Z,1.73
2019-05-23T14:38:32.655Z,1.90
2019-05-23T14:41:01.931Z,2.70
2019-05-23T14:43:31.026Z,2.40
2019-05-23T14:46:03.394Z,1.70
2019-05-23T14:48:39.560Z,2.30
2019-05-23T14:51:19.059Z,2.00
2019-05-23T14:53:51.873Z,2.50
2019-05-23T14:56:22.424Z,1.97
2019-05-23T14:58:52.169Z,2.30
2019-05-23T15:01:23.052Z,2.20
2019-05-23T15:03:51.931Z,2.30
2019-05-23T15:06:21.078Z,1.70
2019-05-23T15:08:51.923Z,1.73
2019-05-23T15:11:22.135Z,1.63
2019-05-23T15:13:51.035Z,1.70
2019-05-23T15:16:20.107Z,1.70
2019-05-23T15:18:49.009Z,1.93
2019-05-23T15:21:18.304Z,1.93
2019-05-23T15:23:47.538Z,1.80
2019-05-23T15:26:22.868Z,2.13
2019-05-23T15:28:47.767Z,1.93
2019-05-23T15:31:16.991Z,1.97
2019-05-23T15:33:46.343Z,1.97
2019-05-23T15:36:15.636Z,1.97
2019-05-23T15:38:44.940Z,2.10
2019-05-23T15:41:13.873Z,2.10
2019-05-23T15:43:43.483Z,1.93
2019-05-23T15:46:12.707Z,1.97
2019-05-23T15:48:41.884Z,1.73
2019-05-23T15:51:12.676Z,1.60
2019-05-23T15:53:52.868Z,1.40
2019-05-23T15:56:29.001Z,1.70
2019-05-23T15:59:20.250Z,1.60
2019-05-23T16:01:56.360Z,2.17
2019-05-23T16:04:25.802Z,1.60
2019-05-23T16:06:55.761Z,1.60
2019-05-23T16:09:29.979Z,1.90
2019-05-23T16:11:57.000Z,1.80
2019-05-23T16:14:26.734Z,1.50
2019-05-23T16:16:57.261Z,1.80
2019-05-23T16:19:26.452Z,1.50
2019-05-23T16:21:55.671Z,1.70
2019-05-23T16:24:25.800Z,1.60
2019-05-23T16:26:54.982Z,1.47
2019-05-23T16:29:24.246Z,1.50
2019-05-23T16:31:53.250Z,1.60
2019-05-23T16:34:22.839Z,1.50
2019-05-23T16:36:51.885Z,1.83
2019-05-23T16:39:20.676Z,1.40
2019-05-23T16:41:49.839Z,1.43
2019-05-23T16:44:18.841Z,1.43
2019-05-23T16:46:48.315Z,1.47
2019-05-23T16:49:17.917Z,1.40
2019-05-23T16:51:46.746Z,1.47
2019-05-23T16:54:17.770Z,1.47
2019-05-23T16:56:54.425Z,1.50
2019-05-23T16:59:33.481Z,1.50
2019-05-23T17:02:21.292Z,1.30
2019-05-23T17:05:24.743Z,1.43
2019-05-23T17:08:18.033Z,1.40
2019-05-23T17:11:12.566Z,1.30
2019-05-23T17:13:49.065Z,1.40
2019-05-23T17:16:33.399Z,1.50
2019-05-23T17:19:07.937Z,1.10
2019-05-23T17:22:02.557Z,1.50
2019-05-23T17:24:40.325Z,1.43
2019-05-23T17:27:28.844Z,1.23
2019-05-23T17:30:16.196Z,1.40
2019-05-23T17:32:45.609Z,1.30
2019-05-23T17:35:14.728Z,1.30
2019-05-23T17:37:43.884Z,1.37
2019-05-23T17:40:24.202Z,1.30
2019-05-23T17:42:44.349Z,1.50
2019-05-23T17:45:14.303Z,1.23
2019-05-23T17:47:43.147Z,1.40
2019-05-23T17:50:12.730Z,1.10
2019-05-23T17:52:42.269Z,1.20
2019-05-23T17:55:11.293Z,1.60
2019-05-23T17:57:40.482Z,1.60
2019-05-23T18:00:09.776Z,1.30
2019-05-23T18:02:39.411Z,1.30
2019-05-23T18:05:09.179Z,1.40
2019-05-23T18:07:39.427Z,1.40
2019-05-23T18:10:10.140Z,1.50
2019-05-23T18:12:39.553Z,1.30
2019-05-23T18:15:11.017Z,1.30
2019-05-23T18:17:40.731Z,1.27
2019-05-23T18:20:10.564Z,1.37
2019-05-23T18:22:40.963Z,1.30
2019-05-23T18:25:13.292Z,1.30
2019-05-23T18:27:42.403Z,1.30
2019-05-23T18:30:22.788Z,1.43
2019-05-23T18:32:53.436Z,1.53
2019-05-23T18:35:22.643Z,1.70
2019-05-23T18:37:52.350Z,1.30
2019-05-23T18:40:21.521Z,2.27
2019-05-23T18:42:51.034Z,2.27
2019-05-23T18:45:21.511Z,3.30
2019-05-23T18:47:51.069Z,2.70
2019-05-23T18:50:21.029Z,3.10
2019-05-23T18:52:51.988Z,2.33
2019-05-23T18:55:21.437Z,2.90
2019-05-23T18:57:50.573Z,2.50
2019-05-23T19:00:24.744Z,2.53
2019-05-23T19:02:54.697Z,2.67
2019-05-23T19:05:27.371Z,1.93
2019-05-23T19:07:54.967Z,2.10
2019-05-23T19:10:24.581Z,2.20
2019-05-23T19:12:53.614Z,2.40
2019-05-23T19:15:22.784Z,2.50
2019-05-23T19:17:51.663Z,2.03
2019-05-23T19:20:20.453Z,2.30
2019-05-23T19:22:49.448Z,4.17
2019-05-23T19:25:18.989Z,7.33
2019-05-23T19:27:48.404Z,6.07
2019-05-23T19:30:17.592Z,5.90
2019-05-23T19:32:46.635Z,5.20
2019-05-23T19:35:16.175Z,18.63
2019-05-23T19:37:45.378Z,58.43
2019-05-23T19:40:16.130Z,39.67
2019-05-23T19:42:45.410Z,23.17
2019-05-23T19:45:14.586Z,19.83
2019-05-23T19:47:44.246Z,15.33
2019-05-23T19:50:13.259Z,8.50
2019-05-23T19:52:42.627Z,3.37
2019-05-23T19:55:11.549Z,3.00
2019-05-23T19:57:41.070Z,2.07
2019-05-23T20:00:14.134Z,2.00
2019-05-23T20:02:48.042Z,1.70
2019-05-23T20:05:22.035Z,1.67
2019-05-23T20:07:51.656Z,1.67
2019-05-23T20:10:21.419Z,1.60
2019-05-23T20:12:50.659Z,1.83
2019-05-23T20:15:19.887Z,1.80
2019-05-23T20:17:51.754Z,2.10
2019-05-23T20:20:20.358Z,1.80
2019-05-23T20:22:49.293Z,2.00
2019-05-23T20:25:18.593Z,1.90
2019-05-23T20:27:48.359Z,1.83
2019-05-23T20:31:01.328Z,1.80
2019-05-23T20:33:30.659Z,1.80
2019-05-23T20:36:00.647Z,1.97
2019-05-23T20:38:29.663Z,2.60
2019-05-23T20:40:58.558Z,1.90
2019-05-23T20:43:27.745Z,2.30
2019-05-23T20:45:57.824Z,2.10
2019-05-23T20:48:27.047Z,1.90
2019-05-23T20:50:56.427Z,2.27
2019-05-23T20:53:25.834Z,1.90
2019-05-23T20:55:54.969Z,2.10
2019-05-23T20:58:24.147Z,1.93
2019-05-23T21:01:03.616Z,2.10
2019-05-23T21:03:35.827Z,2.00
2019-05-23T21:06:04.446Z,1.80
2019-05-23T21:08:33.883Z,2.53
2019-05-23T21:11:03.504Z,2.50
2019-05-23T21:13:32.942Z,2.03
2019-05-23T21:16:02.367Z,2.10
2019-05-23T21:18:31.771Z,2.17
2019-05-23T21:21:00.616Z,2.00
2019-05-23T21:23:29.945Z,2.13
2019-05-23T21:26:05.311Z,2.23
2019-05-23T21:28:34.614Z,3.10
2019-05-23T21:31:04.457Z,3.53
2019-05-23T21:33:33.689Z,2.90
2019-05-23T21:36:03.097Z,2.03
2019-05-23T21:38:32.188Z,2.53
2019-05-23T21:41:03.450Z,2.30
2019-05-23T21:43:32.578Z,2.20
2019-05-23T21:46:01.806Z,2.10
2019-05-23T21:48:31.047Z,2.00
2019-05-23T21:51:00.758Z,2.30
2019-05-23T21:53:30.079Z,2.20
2019-05-23T21:55:59.320Z,2.47
2019-05-23T21:58:28.454Z,2.20
2019-05-23T22:01:30.444Z,2.60
2019-05-23T22:04:18.853Z,2.10
2019-05-23T22:06:55.496Z,2.07
2019-05-23T22:09:23.904Z,2.33
2019-05-23T22:11:54.118Z,2.20
2019-05-23T22:14:23.259Z,2.70
2019-05-23T22:16:52.512Z,2.30
2019-05-23T22:19:23.521Z,2.20
2019-05-23T22:21:52.363Z,2.43
2019-05-23T22:24:22.288Z,2.60
2019-05-23T22:26:51.456Z,2.70
2019-05-23T22:29:21.223Z,3.23
2019-05-23T22:31:50.488Z,2.93
2019-05-23T22:34:37.496Z,2.80
2019-05-23T22:37:15.754Z,2.50
2019-05-23T22:39:45.303Z,3.97
2019-05-23T22:42:14.318Z,2.97
2019-05-23T22:44:43.728Z,2.60
2019-05-23T22:47:12.978Z,2.93
2019-05-23T22:49:41.810Z,3.10
2019-05-23T22:52:11.036Z,3.03
2019-05-23T22:54:40.463Z,3.00
2019-05-23T22:57:09.447Z,3.93
2019-05-23T22:59:38.314Z,2.60
2019-05-23T23:02:11.613Z,2.63
2019-05-23T23:04:40.506Z,2.90
2019-05-23T23:07:09.965Z,3.00
2019-05-23T23:09:39.022Z,2.80
2019-05-23T23:12:08.184Z,2.80
2019-05-23T23:14:37.054Z,2.80
2019-05-23T23:17:06.162Z,3.10
2019-05-23T23:19:34.947Z,2.77
2019-05-23T23:22:03.832Z,2.90
2019-05-23T23:24:33.145Z,3.10
2019-05-23T23:27:02.252Z,2.97
2019-05-23T23:29:31.316Z,3.10
2019-05-23T23:32:03.759Z,2.87
2019-05-23T23:34:31.543Z,3.10
2019-05-23T23:37:00.719Z,3.10
2019-05-23T23:39:30.183Z,3.20
2019-05-23T23:41:59.234Z,3.13
2019-05-23T23:44:36.548Z,3.10
2019-05-23T23:47:24.025Z,3.10
2019-05-23T23:50:10.881Z,3.03
2019-05-23T23:52:57.924Z,3.00
2019-05-23T23:55:44.882Z,2.97
2019-05-23T23:58:13.042Z,3.40
